sensor_id;sensor_type;location;lat;lon;timestamp;P1;durP1;ratioP1;P2;durP2;ratioP2
1679;SDS011;838;51.794;12.258;2023-02-22T00:00:35;19.03;;;12.23;;
1679;SDS011;838;51.794;12.258;2023-02-22T00:03:28;19.63;;;12.20;;
1679;SDS011;838;51.794;12.258;2023-02-22T00:06:00;23.77;;;13.03;;
1679;SDS011;838;51.794;12.258;2023-02-22T00:08:30;20.40;;;11.33;;
1679;SDS011;838;51.794;12.258;2023-02-22T00:10:59;24.00;;;13.80;;
1679;SDS011;838;51.794;12.258;2023-02-22T00:13:26;28.80;;;12.93;;
1679;SDS011;838;51.794;12.258;2023-02-22T00:15:53;21.90;;;12.37;;
1679;SDS011;838;51.794;12.258;2023-02-22T00:18:20;24.20;;;13.30;;
1679;SDS011;838;51.794;12.258;2023-02-22T00:20:45;23.63;;;13.20;;
1679;SDS011;838;51.794;12.258;2023-02-22T00:23:20;20.63;;;10.60;;
1679;SDS011;838;51.794;12.258;2023-02-22T00:25:47;22.50;;;11.40;;
1679;SDS011;838;51.794;12.258;2023-02-22T00:28:14;19.13;;;11.60;;
1679;SDS011;838;51.794;12.258;2023-02-22T00:30:41;19.87;;;10.90;;
1679;SDS011;838;51.794;12.258;2023-02-22T00:33:13;20.27;;;11.43;;
1679;SDS011;838;51.794;12.258;2023-02-22T00:35:40;18.40;;;10.90;;
1679;SDS011;838;51.794;12.258;2023-02-22T00:38:10;18.37;;;11.73;;
1679;SDS011;838;51.794;12.258;2023-02-22T00:40:36;20.43;;;11.93;;
1679;SDS011;838;51.794;12.258;2023-02-22T00:43:03;21.53;;;13.07;;
1679;SDS011;838;51.794;12.258;2023-02-22T00:45:30;19.47;;;11.23;;
1679;SDS011;838;51.794;12.258;2023-02-22T00:47:57;20.30;;;11.90;;
1679;SDS011;838;51.794;12.258;2023-02-22T00:50:24;20.40;;;11.47;;
1679;SDS011;838;51.794;12.258;2023-02-22T00:52:52;22.90;;;12.30;;
1679;SDS011;838;51.794;12.258;2023-02-22T00:55:23;24.60;;;12.70;;
1679;SDS011;838;51.794;12.258;2023-02-22T00:57:52;23.87;;;12.00;;
1679;SDS011;838;51.794;12.258;2023-02-22T01:00:21;22.63;;;12.10;;
1679;SDS011;838;51.794;12.258;2023-02-22T01:02:50;20.87;;;11.33;;
1679;SDS011;838;51.794;12.258;2023-02-22T01:05:20;19.37;;;10.33;;
1679;SDS011;838;51.794;12.258;2023-02-22T01:07:47;21.60;;;12.20;;
1679;SDS011;838;51.794;12.258;2023-02-22T01:10:13;19.13;;;11.83;;
1679;SDS011;838;51.794;12.258;2023-02-22T01:12:40;20.07;;;11.60;;
1679;SDS011;838;51.794;12.258;2023-02-22T01:15:07;16.27;;;11.37;;
1679;SDS011;838;51.794;12.258;2023-02-22T01:17:34;17.93;;;9.80;;
1679;SDS011;838;51.794;12.258;2023-02-22T01:20:01;18.33;;;9.83;;
1679;SDS011;838;51.794;12.258;2023-02-22T01:22:34;23.07;;;11.67;;
1679;SDS011;838;51.794;12.258;2023-02-22T01:24:59;18.03;;;10.93;;
1679;SDS011;838;51.794;12.258;2023-02-22T01:27:25;20.60;;;12.13;;
1679;SDS011;838;51.794;12.258;2023-02-22T01:29:52;17.57;;;10.10;;
1679;SDS011;838;51.794;12.258;2023-02-22T01:32:17;21.30;;;11.30;;
1679;SDS011;838;51.794;12.258;2023-02-22T01:34:44;15.30;;;10.00;;
1679;SDS011;838;51.794;12.258;2023-02-22T01:37:10;17.40;;;10.00;;
1679;SDS011;838;51.794;12.258;2023-02-22T01:39:36;19.33;;;10.70;;
1679;SDS011;838;51.794;12.258;2023-02-22T01:42:01;19.50;;;11.47;;
1679;SDS011;838;51.794;12.258;2023-02-22T01:44:35;17.97;;;10.40;;
1679;SDS011;838;51.794;12.258;2023-02-22T01:47:03;20.40;;;11.90;;
1679;SDS011;838;51.794;12.258;2023-02-22T01:50:03;18.70;;;10.57;;
1679;SDS011;838;51.794;12.258;2023-02-22T01:52:22;20.23;;;10.80;;
1679;SDS011;838;51.794;12.258;2023-02-22T01:54:50;17.33;;;10.30;;
1679;SDS011;838;51.794;12.258;2023-02-22T01:57:21;18.50;;;11.23;;
1679;SDS011;838;51.794;12.258;2023-02-22T01:59:54;21.77;;;11.00;;
1679;SDS011;838;51.794;12.258;2023-02-22T02:02:23;17.57;;;10.27;;
1679;SDS011;838;51.794;12.258;2023-02-22T02:04:50;19.13;;;11.17;;
1679;SDS011;838;51.794;12.258;2023-02-22T02:07:19;19.63;;;10.50;;
1679;SDS011;838;51.794;12.258;2023-02-22T02:12:26;18.50;;;10.10;;
1679;SDS011;838;51.794;12.258;2023-02-22T02:15:15;19.93;;;10.40;;
1679;SDS011;838;51.794;12.258;2023-02-22T02:17:41;16.97;;;10.20;;
1679;SDS011;838;51.794;12.258;2023-02-22T02:21:16;23.37;;;10.93;;
1679;SDS011;838;51.794;12.258;2023-02-22T02:34:49;16.53;;;8.83;;
1679;SDS011;838;51.794;12.258;2023-02-22T02:40:46;19.37;;;9.30;;
1679;SDS011;838;51.794;12.258;2023-02-22T02:43:21;22.27;;;11.10;;
1679;SDS011;838;51.794;12.258;2023-02-22T02:46:00;18.63;;;9.97;;
1679;SDS011;838;51.794;12.258;2023-02-22T02:48:31;18.87;;;11.10;;
1679;SDS011;838;51.794;12.258;2023-02-22T02:50:59;23.90;;;11.77;;
1679;SDS011;838;51.794;12.258;2023-02-22T02:53:31;21.20;;;10.60;;
1679;SDS011;838;51.794;12.258;2023-02-22T02:55:59;18.63;;;10.13;;
1679;SDS011;838;51.794;12.258;2023-02-22T02:58:26;20.87;;;10.40;;
1679;SDS011;838;51.794;12.258;2023-02-22T03:00:52;23.13;;;12.07;;
1679;SDS011;838;51.794;12.258;2023-02-22T03:08:38;22.63;;;11.33;;
1679;SDS011;838;51.794;12.258;2023-02-22T03:11:09;24.10;;;11.37;;
1679;SDS011;838;51.794;12.258;2023-02-22T03:14:14;21.23;;;10.07;;
1679;SDS011;838;51.794;12.258;2023-02-22T03:16:42;19.30;;;10.47;;
1679;SDS011;838;51.794;12.258;2023-02-22T03:24:12;17.97;;;10.27;;
1679;SDS011;838;51.794;12.258;2023-02-22T03:29:09;18.93;;;9.87;;
1679;SDS011;838;51.794;12.258;2023-02-22T03:31:44;19.50;;;11.10;;
1679;SDS011;838;51.794;12.258;2023-02-22T03:34:26;19.83;;;9.90;;
1679;SDS011;838;51.794;12.258;2023-02-22T03:37:04;23.00;;;11.37;;
1679;SDS011;838;51.794;12.258;2023-02-22T03:39:53;20.27;;;11.00;;
1679;SDS011;838;51.794;12.258;2023-02-22T03:42:21;21.43;;;11.00;;
1679;SDS011;838;51.794;12.258;2023-02-22T03:44:51;20.63;;;11.73;;
1679;SDS011;838;51.794;12.258;2023-02-22T03:47:26;25.57;;;12.57;;
1679;SDS011;838;51.794;12.258;2023-02-22T03:49:58;22.60;;;11.70;;
1679;SDS011;838;51.794;12.258;2023-02-22T03:52:31;22.73;;;11.53;;
1679;SDS011;838;51.794;12.258;2023-02-22T03:54:59;25.60;;;13.30;;
1679;SDS011;838;51.794;12.258;2023-02-22T03:57:27;21.00;;;13.27;;
1679;SDS011;838;51.794;12.258;2023-02-22T03:59:56;20.87;;;11.10;;
1679;SDS011;838;51.794;12.258;2023-02-22T04:02:22;20.43;;;12.00;;
1679;SDS011;838;51.794;12.258;2023-02-22T04:04:48;21.17;;;12.07;;
1679;SDS011;838;51.794;12.258;2023-02-22T04:07:14;21.87;;;12.07;;
1679;SDS011;838;51.794;12.258;2023-02-22T04:09:40;21.43;;;11.70;;
1679;SDS011;838;51.794;12.258;2023-02-22T04:12:06;18.03;;;10.90;;
1679;SDS011;838;51.794;12.258;2023-02-22T04:14:32;19.80;;;10.70;;
1679;SDS011;838;51.794;12.258;2023-02-22T04:16:58;16.73;;;9.87;;
1679;SDS011;838;51.794;12.258;2023-02-22T04:19:24;23.00;;;11.63;;
1679;SDS011;838;51.794;12.258;2023-02-22T04:21:50;23.10;;;12.30;;
1679;SDS011;838;51.794;12.258;2023-02-22T04:24:15;22.63;;;11.10;;
1679;SDS011;838;51.794;12.258;2023-02-22T04:26:41;21.87;;;12.10;;
1679;SDS011;838;51.794;12.258;2023-02-22T04:29:07;21.77;;;11.53;;
1679;SDS011;838;51.794;12.258;2023-02-22T04:31:33;20.53;;;11.20;;
1679;SDS011;838;51.794;12.258;2023-02-22T04:33:59;22.37;;;11.87;;
1679;SDS011;838;51.794;12.258;2023-02-22T04:36:25;20.93;;;11.30;;
1679;SDS011;838;51.794;12.258;2023-02-22T04:38:51;22.40;;;10.30;;
1679;SDS011;838;51.794;12.258;2023-02-22T04:41:18;20.30;;;12.40;;
1679;SDS011;838;51.794;12.258;2023-02-22T04:43:44;26.87;;;13.90;;
1679;SDS011;838;51.794;12.258;2023-02-22T04:46:10;22.60;;;12.50;;
1679;SDS011;838;51.794;12.258;2023-02-22T04:48:37;21.63;;;10.70;;
1679;SDS011;838;51.794;12.258;2023-02-22T04:51:03;18.50;;;10.90;;
1679;SDS011;838;51.794;12.258;2023-02-22T04:53:29;19.90;;;10.17;;
1679;SDS011;838;51.794;12.258;2023-02-22T04:55:55;17.90;;;10.13;;
1679;SDS011;838;51.794;12.258;2023-02-22T04:58:20;17.43;;;9.90;;
1679;SDS011;838;51.794;12.258;2023-02-22T05:00:46;24.90;;;14.10;;
1679;SDS011;838;51.794;12.258;2023-02-22T05:03:12;18.53;;;9.50;;
1679;SDS011;838;51.794;12.258;2023-02-22T05:05:38;17.57;;;9.67;;
1679;SDS011;838;51.794;12.258;2023-02-22T05:08:04;19.80;;;10.83;;
1679;SDS011;838;51.794;12.258;2023-02-22T05:10:29;21.70;;;11.90;;
1679;SDS011;838;51.794;12.258;2023-02-22T05:12:55;24.50;;;12.83;;
1679;SDS011;838;51.794;12.258;2023-02-22T05:15:21;20.53;;;12.80;;
1679;SDS011;838;51.794;12.258;2023-02-22T05:17:49;26.63;;;13.70;;
1679;SDS011;838;51.794;12.258;2023-02-22T05:20:36;26.50;;;15.47;;
1679;SDS011;838;51.794;12.258;2023-02-22T05:23:01;27.03;;;14.43;;
1679;SDS011;838;51.794;12.258;2023-02-22T05:25:28;24.37;;;13.57;;
1679;SDS011;838;51.794;12.258;2023-02-22T05:27:57;20.53;;;14.20;;
1679;SDS011;838;51.794;12.258;2023-02-22T05:30:26;23.20;;;13.43;;
1679;SDS011;838;51.794;12.258;2023-02-22T05:32:54;25.07;;;13.13;;
1679;SDS011;838;51.794;12.258;2023-02-22T05:35:22;24.67;;;13.53;;
1679;SDS011;838;51.794;12.258;2023-02-22T05:37:48;23.53;;;13.70;;
1679;SDS011;838;51.794;12.258;2023-02-22T05:40:21;23.73;;;11.20;;
1679;SDS011;838;51.794;12.258;2023-02-22T05:42:49;20.87;;;10.60;;
1679;SDS011;838;51.794;12.258;2023-02-22T05:45:19;24.13;;;11.97;;
1679;SDS011;838;51.794;12.258;2023-02-22T05:47:46;17.23;;;10.90;;
1679;SDS011;838;51.794;12.258;2023-02-22T05:50:13;22.57;;;12.30;;
1679;SDS011;838;51.794;12.258;2023-02-22T05:52:39;19.70;;;10.90;;
1679;SDS011;838;51.794;12.258;2023-02-22T05:55:06;26.03;;;12.77;;
1679;SDS011;838;51.794;12.258;2023-02-22T05:57:32;22.30;;;12.17;;
1679;SDS011;838;51.794;12.258;2023-02-22T05:59:59;23.63;;;11.30;;
1679;SDS011;838;51.794;12.258;2023-02-22T06:02:25;18.80;;;11.43;;
1679;SDS011;838;51.794;12.258;2023-02-22T06:04:51;22.13;;;12.57;;
1679;SDS011;838;51.794;12.258;2023-02-22T06:07:17;19.43;;;11.63;;
1679;SDS011;838;51.794;12.258;2023-02-22T06:09:42;21.57;;;11.67;;
1679;SDS011;838;51.794;12.258;2023-02-22T06:12:08;25.47;;;12.60;;
1679;SDS011;838;51.794;12.258;2023-02-22T06:14:34;20.77;;;12.17;;
1679;SDS011;838;51.794;12.258;2023-02-22T06:17:00;21.97;;;11.83;;
1679;SDS011;838;51.794;12.258;2023-02-22T06:19:26;20.80;;;11.40;;
1679;SDS011;838;51.794;12.258;2023-02-22T06:21:53;21.17;;;11.37;;
1679;SDS011;838;51.794;12.258;2023-02-22T06:24:20;25.43;;;11.73;;
1679;SDS011;838;51.794;12.258;2023-02-22T06:26:46;21.60;;;11.53;;
1679;SDS011;838;51.794;12.258;2023-02-22T06:29:23;22.07;;;11.73;;
1679;SDS011;838;51.794;12.258;2023-02-22T06:31:49;18.33;;;11.00;;
1679;SDS011;838;51.794;12.258;2023-02-22T06:34:15;16.10;;;10.00;;
1679;SDS011;838;51.794;12.258;2023-02-22T06:36:41;18.70;;;10.20;;
1679;SDS011;838;51.794;12.258;2023-02-22T06:39:07;20.40;;;11.80;;
1679;SDS011;838;51.794;12.258;2023-02-22T06:41:36;18.70;;;10.50;;
1679;SDS011;838;51.794;12.258;2023-02-22T06:44:03;19.20;;;11.73;;
1679;SDS011;838;51.794;12.258;2023-02-22T06:46:29;25.07;;;12.90;;
1679;SDS011;838;51.794;12.258;2023-02-22T06:48:55;22.70;;;12.53;;
1679;SDS011;838;51.794;12.258;2023-02-22T06:51:23;21.50;;;11.80;;
1679;SDS011;838;51.794;12.258;2023-02-22T06:53:50;19.13;;;11.17;;
1679;SDS011;838;51.794;12.258;2023-02-22T06:56:16;23.60;;;12.00;;
1679;SDS011;838;51.794;12.258;2023-02-22T06:58:42;21.37;;;11.63;;
1679;SDS011;838;51.794;12.258;2023-02-22T07:01:07;21.20;;;10.97;;
1679;SDS011;838;51.794;12.258;2023-02-22T07:03:33;17.73;;;11.50;;
1679;SDS011;838;51.794;12.258;2023-02-22T07:05:59;23.20;;;12.57;;
1679;SDS011;838;51.794;12.258;2023-02-22T07:08:26;25.10;;;13.80;;
1679;SDS011;838;51.794;12.258;2023-02-22T07:10:53;28.43;;;13.77;;
1679;SDS011;838;51.794;12.258;2023-02-22T07:13:19;24.10;;;14.00;;
1679;SDS011;838;51.794;12.258;2023-02-22T07:15:45;26.80;;;13.67;;
1679;SDS011;838;51.794;12.258;2023-02-22T07:18:11;22.10;;;12.20;;
1679;SDS011;838;51.794;12.258;2023-02-22T07:20:38;24.53;;;14.17;;
1679;SDS011;838;51.794;12.258;2023-02-22T07:23:04;26.40;;;13.70;;
1679;SDS011;838;51.794;12.258;2023-02-22T07:25:30;25.17;;;13.37;;
1679;SDS011;838;51.794;12.258;2023-02-22T07:27:56;23.00;;;13.60;;
1679;SDS011;838;51.794;12.258;2023-02-22T07:30:23;21.57;;;13.07;;
1679;SDS011;838;51.794;12.258;2023-02-22T07:32:54;28.70;;;13.93;;
1679;SDS011;838;51.794;12.258;2023-02-22T07:35:22;29.40;;;14.60;;
1679;SDS011;838;51.794;12.258;2023-02-22T07:37:48;29.20;;;14.20;;
1679;SDS011;838;51.794;12.258;2023-02-22T07:40:14;29.10;;;14.97;;
1679;SDS011;838;51.794;12.258;2023-02-22T07:43:41;28.13;;;15.13;;
1679;SDS011;838;51.794;12.258;2023-02-22T07:45:44;23.53;;;13.33;;
1679;SDS011;838;51.794;12.258;2023-02-22T07:48:11;24.00;;;13.63;;
1679;SDS011;838;51.794;12.258;2023-02-22T07:50:37;29.00;;;14.90;;
1679;SDS011;838;51.794;12.258;2023-02-22T07:53:04;24.17;;;13.77;;
1679;SDS011;838;51.794;12.258;2023-02-22T07:55:31;30.50;;;15.73;;
1679;SDS011;838;51.794;12.258;2023-02-22T07:57:59;25.00;;;14.43;;
1679;SDS011;838;51.794;12.258;2023-02-22T08:00:30;27.40;;;13.97;;
1679;SDS011;838;51.794;12.258;2023-02-22T08:03:07;29.10;;;15.20;;
1679;SDS011;838;51.794;12.258;2023-02-22T08:05:35;28.13;;;14.90;;
1679;SDS011;838;51.794;12.258;2023-02-22T08:08:02;21.93;;;12.87;;
1679;SDS011;838;51.794;12.258;2023-02-22T08:10:30;23.10;;;12.93;;
1679;SDS011;838;51.794;12.258;2023-02-22T08:12:56;25.53;;;15.17;;
1679;SDS011;838;51.794;12.258;2023-02-22T08:15:23;25.17;;;14.00;;
1679;SDS011;838;51.794;12.258;2023-02-22T08:17:54;24.47;;;14.20;;
1679;SDS011;838;51.794;12.258;2023-02-22T08:20:25;26.77;;;14.90;;
1679;SDS011;838;51.794;12.258;2023-02-22T08:22:51;27.50;;;14.73;;
1679;SDS011;838;51.794;12.258;2023-02-22T08:25:18;24.27;;;13.93;;
1679;SDS011;838;51.794;12.258;2023-02-22T08:27:45;25.50;;;14.13;;
1679;SDS011;838;51.794;12.258;2023-02-22T08:30:16;22.40;;;12.60;;
1679;SDS011;838;51.794;12.258;2023-02-22T08:32:46;28.07;;;13.77;;
1679;SDS011;838;51.794;12.258;2023-02-22T08:35:13;26.07;;;14.20;;
1679;SDS011;838;51.794;12.258;2023-02-22T08:37:47;27.73;;;15.67;;
1679;SDS011;838;51.794;12.258;2023-02-22T08:40:15;28.07;;;14.27;;
1679;SDS011;838;51.794;12.258;2023-02-22T08:42:42;29.07;;;15.13;;
1679;SDS011;838;51.794;12.258;2023-02-22T08:45:08;25.03;;;14.07;;
1679;SDS011;838;51.794;12.258;2023-02-22T08:47:35;25.00;;;13.60;;
1679;SDS011;838;51.794;12.258;2023-02-22T08:50:01;28.80;;;15.17;;
1679;SDS011;838;51.794;12.258;2023-02-22T08:52:26;26.70;;;15.40;;
1679;SDS011;838;51.794;12.258;2023-02-22T08:54:52;25.43;;;13.80;;
1679;SDS011;838;51.794;12.258;2023-02-22T08:57:19;26.97;;;15.00;;
1679;SDS011;838;51.794;12.258;2023-02-22T08:59:45;26.03;;;14.60;;
1679;SDS011;838;51.794;12.258;2023-02-22T09:02:15;27.20;;;15.17;;
1679;SDS011;838;51.794;12.258;2023-02-22T09:04:43;28.80;;;15.73;;
1679;SDS011;838;51.794;12.258;2023-02-22T09:07:09;26.43;;;15.57;;
1679;SDS011;838;51.794;12.258;2023-02-22T09:09:35;23.43;;;14.00;;
1679;SDS011;838;51.794;12.258;2023-02-22T09:12:01;26.20;;;14.90;;
1679;SDS011;838;51.794;12.258;2023-02-22T09:14:27;24.33;;;14.00;;
1679;SDS011;838;51.794;12.258;2023-02-22T09:16:53;25.53;;;13.57;;
1679;SDS011;838;51.794;12.258;2023-02-22T09:19:19;23.40;;;12.90;;
1679;SDS011;838;51.794;12.258;2023-02-22T09:21:44;25.83;;;13.20;;
1679;SDS011;838;51.794;12.258;2023-02-22T09:24:19;25.80;;;13.50;;
1679;SDS011;838;51.794;12.258;2023-02-22T09:26:46;24.20;;;13.93;;
1679;SDS011;838;51.794;12.258;2023-02-22T09:29:12;27.83;;;13.83;;
1679;SDS011;838;51.794;12.258;2023-02-22T09:31:38;26.93;;;14.57;;
1679;SDS011;838;51.794;12.258;2023-02-22T09:34:05;25.73;;;14.37;;
1679;SDS011;838;51.794;12.258;2023-02-22T09:36:40;23.80;;;13.77;;
1679;SDS011;838;51.794;12.258;2023-02-22T09:39:07;23.83;;;14.10;;
1679;SDS011;838;51.794;12.258;2023-02-22T09:41:40;26.27;;;14.47;;
1679;SDS011;838;51.794;12.258;2023-02-22T09:44:19;21.53;;;13.63;;
1679;SDS011;838;51.794;12.258;2023-02-22T09:46:51;27.20;;;13.30;;
1679;SDS011;838;51.794;12.258;2023-02-22T09:49:22;22.60;;;12.43;;
1679;SDS011;838;51.794;12.258;2023-02-22T09:54:41;22.37;;;13.87;;
1679;SDS011;838;51.794;12.258;2023-02-22T09:57:39;24.40;;;15.00;;
1679;SDS011;838;51.794;12.258;2023-02-22T10:02:53;28.77;;;15.03;;
1679;SDS011;838;51.794;12.258;2023-02-22T10:05:50;26.07;;;14.87;;
1679;SDS011;838;51.794;12.258;2023-02-22T10:08:28;23.57;;;14.07;;
1679;SDS011;838;51.794;12.258;2023-02-22T10:11:41;24.63;;;13.17;;
1679;SDS011;838;51.794;12.258;2023-02-22T10:25:03;24.83;;;13.57;;
1679;SDS011;838;51.794;12.258;2023-02-22T10:30:36;21.40;;;12.10;;
1679;SDS011;838;51.794;12.258;2023-02-22T10:35:38;25.30;;;14.33;;
1679;SDS011;838;51.794;12.258;2023-02-22T10:38:17;22.40;;;13.53;;
1679;SDS011;838;51.794;12.258;2023-02-22T10:41:34;21.47;;;13.67;;
1679;SDS011;838;51.794;12.258;2023-02-22T10:43:37;23.87;;;12.87;;
1679;SDS011;838;51.794;12.258;2023-02-22T10:46:05;24.07;;;13.83;;
1679;SDS011;838;51.794;12.258;2023-02-22T10:48:35;25.20;;;13.50;;
1679;SDS011;838;51.794;12.258;2023-02-22T10:51:05;23.93;;;13.27;;
1679;SDS011;838;51.794;12.258;2023-02-22T10:53:33;22.53;;;12.17;;
1679;SDS011;838;51.794;12.258;2023-02-22T10:58:43;23.90;;;14.10;;
1679;SDS011;838;51.794;12.258;2023-02-22T11:04:15;21.63;;;12.30;;
1679;SDS011;838;51.794;12.258;2023-02-22T11:07:26;23.00;;;12.43;;
1679;SDS011;838;51.794;12.258;2023-02-22T11:12:17;22.03;;;12.13;;
1679;SDS011;838;51.794;12.258;2023-02-22T11:14:45;21.73;;;13.37;;
1679;SDS011;838;51.794;12.258;2023-02-22T11:17:12;22.93;;;12.17;;
1679;SDS011;838;51.794;12.258;2023-02-22T11:19:47;18.60;;;10.93;;
1679;SDS011;838;51.794;12.258;2023-02-22T11:22:27;20.17;;;11.17;;
1679;SDS011;838;51.794;12.258;2023-02-22T11:25:03;19.63;;;12.17;;
1679;SDS011;838;51.794;12.258;2023-02-22T11:32:46;22.83;;;12.77;;
1679;SDS011;838;51.794;12.258;2023-02-22T11:37:53;19.10;;;12.23;;
1679;SDS011;838;51.794;12.258;2023-02-22T11:40:34;17.50;;;12.13;;
1679;SDS011;838;51.794;12.258;2023-02-22T11:43:07;22.43;;;12.60;;
1679;SDS011;838;51.794;12.258;2023-02-22T11:45:58;16.80;;;10.97;;
1679;SDS011;838;51.794;12.258;2023-02-22T11:48:28;17.03;;;12.00;;
1679;SDS011;838;51.794;12.258;2023-02-22T11:51:05;19.23;;;12.70;;
1679;SDS011;838;51.794;12.258;2023-02-22T11:53:42;16.50;;;11.20;;
1679;SDS011;838;51.794;12.258;2023-02-22T11:56:34;19.90;;;11.70;;
1679;SDS011;838;51.794;12.258;2023-02-22T12:02:23;21.70;;;10.77;;
1679;SDS011;838;51.794;12.258;2023-02-22T12:12:55;20.80;;;11.73;;
1679;SDS011;838;51.794;12.258;2023-02-22T12:18:17;18.47;;;11.53;;
1679;SDS011;838;51.794;12.258;2023-02-22T12:20:56;20.17;;;12.30;;
1679;SDS011;838;51.794;12.258;2023-02-22T12:28:54;17.43;;;9.33;;
1679;SDS011;838;51.794;12.258;2023-02-22T12:34:01;17.10;;;10.37;;
1679;SDS011;838;51.794;12.258;2023-02-22T12:36:47;18.10;;;10.90;;
1679;SDS011;838;51.794;12.258;2023-02-22T12:42:18;15.00;;;9.60;;
1679;SDS011;838;51.794;12.258;2023-02-22T12:44:53;15.30;;;10.43;;
1679;SDS011;838;51.794;12.258;2023-02-22T12:47:27;14.37;;;9.77;;
1679;SDS011;838;51.794;12.258;2023-02-22T12:49:58;15.30;;;10.23;;
1679;SDS011;838;51.794;12.258;2023-02-22T12:55:15;13.73;;;9.53;;
1679;SDS011;838;51.794;12.258;2023-02-22T13:00:59;11.87;;;8.50;;
1679;SDS011;838;51.794;12.258;2023-02-22T13:05:43;15.40;;;9.80;;
1679;SDS011;838;51.794;12.258;2023-02-22T13:13:31;15.10;;;9.47;;
1679;SDS011;838;51.794;12.258;2023-02-22T13:21:56;13.73;;;9.47;;
1679;SDS011;838;51.794;12.258;2023-02-22T13:27:08;10.77;;;7.63;;
1679;SDS011;838;51.794;12.258;2023-02-22T13:29:41;13.73;;;9.20;;
1679;SDS011;838;51.794;12.258;2023-02-22T13:40:36;12.63;;;7.97;;
1679;SDS011;838;51.794;12.258;2023-02-22T13:57:01;13.03;;;9.03;;
1679;SDS011;838;51.794;12.258;2023-02-22T13:59:32;12.07;;;8.27;;
1679;SDS011;838;51.794;12.258;2023-02-22T14:02:00;12.20;;;7.60;;
1679;SDS011;838;51.794;12.258;2023-02-22T14:06:57;12.90;;;9.07;;
1679;SDS011;838;51.794;12.258;2023-02-22T14:17:38;14.30;;;7.63;;
1679;SDS011;838;51.794;12.258;2023-02-22T14:22:49;14.70;;;9.43;;
1679;SDS011;838;51.794;12.258;2023-02-22T14:28:08;13.63;;;9.83;;
1679;SDS011;838;51.794;12.258;2023-02-22T14:31:07;12.50;;;8.50;;
1679;SDS011;838;51.794;12.258;2023-02-22T14:36:19;12.10;;;8.10;;
1679;SDS011;838;51.794;12.258;2023-02-22T14:38:53;15.60;;;9.13;;
1679;SDS011;838;51.794;12.258;2023-02-22T14:41:26;14.33;;;8.10;;
1679;SDS011;838;51.794;12.258;2023-02-22T14:43:55;12.73;;;9.63;;
1679;SDS011;838;51.794;12.258;2023-02-22T14:46:23;12.03;;;8.07;;
1679;SDS011;838;51.794;12.258;2023-02-22T14:48:53;13.30;;;7.70;;
1679;SDS011;838;51.794;12.258;2023-02-22T14:51:27;12.60;;;8.43;;
1679;SDS011;838;51.794;12.258;2023-02-22T14:54:17;12.23;;;7.90;;
1679;SDS011;838;51.794;12.258;2023-02-22T14:56:54;16.10;;;8.80;;
1679;SDS011;838;51.794;12.258;2023-02-22T15:02:47;13.53;;;8.37;;
1679;SDS011;838;51.794;12.258;2023-02-22T15:05:16;16.47;;;8.97;;
1679;SDS011;838;51.794;12.258;2023-02-22T15:08:01;12.23;;;9.17;;
1679;SDS011;838;51.794;12.258;2023-02-22T15:13:03;15.43;;;10.37;;
1679;SDS011;838;51.794;12.258;2023-02-22T15:15:44;14.17;;;8.90;;
1679;SDS011;838;51.794;12.258;2023-02-22T15:18:19;12.03;;;8.27;;
1679;SDS011;838;51.794;12.258;2023-02-22T15:23:40;13.30;;;9.00;;
1679;SDS011;838;51.794;12.258;2023-02-22T15:26:15;14.67;;;8.70;;
1679;SDS011;838;51.794;12.258;2023-02-22T15:28:51;13.70;;;8.03;;
1679;SDS011;838;51.794;12.258;2023-02-22T15:31:31;13.37;;;8.50;;
1679;SDS011;838;51.794;12.258;2023-02-22T15:36:44;14.50;;;8.73;;
1679;SDS011;838;51.794;12.258;2023-02-22T15:39:18;12.43;;;8.10;;
1679;SDS011;838;51.794;12.258;2023-02-22T15:42:10;13.80;;;8.50;;
1679;SDS011;838;51.794;12.258;2023-02-22T15:44:43;12.73;;;8.30;;
1679;SDS011;838;51.794;12.258;2023-02-22T15:47:20;14.63;;;9.50;;
1679;SDS011;838;51.794;12.258;2023-02-22T15:58:00;15.57;;;10.50;;
1679;SDS011;838;51.794;12.258;2023-02-22T16:03:50;13.20;;;8.93;;
1679;SDS011;838;51.794;12.258;2023-02-22T16:09:20;17.40;;;10.57;;
1679;SDS011;838;51.794;12.258;2023-02-22T16:14:44;16.47;;;10.40;;
1679;SDS011;838;51.794;12.258;2023-02-22T16:22:37;15.60;;;10.67;;
1679;SDS011;838;51.794;12.258;2023-02-22T16:27:43;18.50;;;10.67;;
1679;SDS011;838;51.794;12.258;2023-02-22T16:32:45;15.20;;;10.30;;
1679;SDS011;838;51.794;12.258;2023-02-22T16:35:11;15.17;;;10.40;;
1679;SDS011;838;51.794;12.258;2023-02-22T16:37:44;17.40;;;10.73;;
1679;SDS011;838;51.794;12.258;2023-02-22T16:40:18;16.27;;;10.83;;
1679;SDS011;838;51.794;12.258;2023-02-22T16:42:46;16.53;;;10.50;;
1679;SDS011;838;51.794;12.258;2023-02-22T16:45:15;16.17;;;9.97;;
1679;SDS011;838;51.794;12.258;2023-02-22T16:47:42;14.77;;;10.00;;
1679;SDS011;838;51.794;12.258;2023-02-22T16:50:08;17.50;;;10.00;;
1679;SDS011;838;51.794;12.258;2023-02-22T16:52:35;16.67;;;10.60;;
1679;SDS011;838;51.794;12.258;2023-02-22T16:55:04;16.67;;;9.70;;
1679;SDS011;838;51.794;12.258;2023-02-22T16:57:33;15.10;;;10.13;;
1679;SDS011;838;51.794;12.258;2023-02-22T16:59:59;17.13;;;9.80;;
1679;SDS011;838;51.794;12.258;2023-02-22T17:02:25;15.07;;;9.00;;
1679;SDS011;838;51.794;12.258;2023-02-22T17:04:51;18.60;;;10.63;;
1679;SDS011;838;51.794;12.258;2023-02-22T17:07:20;18.93;;;10.80;;
1679;SDS011;838;51.794;12.258;2023-02-22T17:09:54;15.33;;;10.33;;
1679;SDS011;838;51.794;12.258;2023-02-22T17:12:27;18.07;;;10.20;;
1679;SDS011;838;51.794;12.258;2023-02-22T17:14:55;14.80;;;10.50;;
1679;SDS011;838;51.794;12.258;2023-02-22T17:17:21;16.53;;;10.30;;
1679;SDS011;838;51.794;12.258;2023-02-22T17:19:47;16.90;;;10.87;;
1679;SDS011;838;51.794;12.258;2023-02-22T17:22:16;20.63;;;10.13;;
1679;SDS011;838;51.794;12.258;2023-02-22T17:24:43;17.80;;;10.33;;
1679;SDS011;838;51.794;12.258;2023-02-22T17:27:09;14.97;;;9.80;;
1679;SDS011;838;51.794;12.258;2023-02-22T17:29:35;14.47;;;9.10;;
1679;SDS011;838;51.794;12.258;2023-02-22T17:32:01;17.73;;;10.00;;
1679;SDS011;838;51.794;12.258;2023-02-22T17:34:27;12.80;;;9.30;;
1679;SDS011;838;51.794;12.258;2023-02-22T17:36:53;14.73;;;9.20;;
1679;SDS011;838;51.794;12.258;2023-02-22T17:39:18;18.80;;;9.00;;
1679;SDS011;838;51.794;12.258;2023-02-22T17:41:44;15.60;;;9.57;;
1679;SDS011;838;51.794;12.258;2023-02-22T17:44:10;16.53;;;9.63;;
1679;SDS011;838;51.794;12.258;2023-02-22T17:46:36;16.03;;;9.40;;
1679;SDS011;838;51.794;12.258;2023-02-22T17:49:04;13.33;;;8.57;;
1679;SDS011;838;51.794;12.258;2023-02-22T17:51:31;14.00;;;8.97;;
1679;SDS011;838;51.794;12.258;2023-02-22T17:53:57;15.20;;;9.63;;
1679;SDS011;838;51.794;12.258;2023-02-22T17:56:23;13.80;;;9.90;;
1679;SDS011;838;51.794;12.258;2023-02-22T17:58:49;17.23;;;10.07;;
1679;SDS011;838;51.794;12.258;2023-02-22T18:01:23;16.50;;;8.93;;
1679;SDS011;838;51.794;12.258;2023-02-22T18:03:53;17.10;;;8.57;;
1679;SDS011;838;51.794;12.258;2023-02-22T18:06:22;20.70;;;9.00;;
1679;SDS011;838;51.794;12.258;2023-02-22T18:08:51;15.10;;;10.13;;
1679;SDS011;838;51.794;12.258;2023-02-22T18:11:18;11.83;;;8.53;;
1679;SDS011;838;51.794;12.258;2023-02-22T18:13:44;18.60;;;9.30;;
1679;SDS011;838;51.794;12.258;2023-02-22T18:16:11;11.30;;;8.37;;
1679;SDS011;838;51.794;12.258;2023-02-22T18:18:37;12.93;;;8.70;;
1679;SDS011;838;51.794;12.258;2023-02-22T18:21:03;18.37;;;9.50;;
1679;SDS011;838;51.794;12.258;2023-02-22T18:23:30;16.00;;;8.87;;